sensor_id;sensor_type;location;lat;lon;timestamp;temperature;humidity
796;DHT22;381;48.770;9.188;2022-12-10T00:03:06;6.00;99.90
796;DHT22;381;48.770;9.188;2022-12-10T00:08:12;6.00;99.90
796;DHT22;381;48.770;9.188;2022-12-10T00:15:29;6.00;99.90
796;DHT22;381;48.770;9.188;2022-12-10T00:19:48;6.00;99.90
796;DHT22;381;48.770;9.188;2022-12-10T00:25:22;6.00;99.90
796;DHT22;381;48.770;9.188;2022-12-10T00:30:33;6.00;99.90
796;DHT22;381;48.770;9.188;2022-12-10T00:35:37;6.00;99.90
796;DHT22;381;48.770;9.188;2022-12-10T00:47:27;6.00;99.90
796;DHT22;381;48.770;9.188;2022-12-10T01:05:04;6.00;99.90
796;DHT22;381;48.770;9.188;2022-12-10T01:10:22;6.00;99.90
796;DHT22;381;48.770;9.188;2022-12-10T01:15:24;6.00;99.90
796;DHT22;381;48.770;9.188;2022-12-10T01:34:33;5.90;99.90
796;DHT22;381;48.770;9.188;2022-12-10T01:45:47;5.90;99.90
796;DHT22;381;48.770;9.188;2022-12-10T01:50:50;5.90;99.90
796;DHT22;381;48.770;9.188;2022-12-10T01:55:53;5.90;99.90
796;DHT22;381;48.770;9.188;2022-12-10T02:01:14;5.90;99.90
796;DHT22;381;48.770;9.188;2022-12-10T02:06:56;5.90;99.90
796;DHT22;381;48.770;9.188;2022-12-10T02:12:39;5.90;99.90
796;DHT22;381;48.770;9.188;2022-12-10T02:18:06;5.90;99.90
796;DHT22;381;48.770;9.188;2022-12-10T02:23:46;5.90;99.90
796;DHT22;381;48.770;9.188;2022-12-10T02:29:52;5.90;99.90
796;DHT22;381;48.770;9.188;2022-12-10T02:34:57;5.90;99.90
796;DHT22;381;48.770;9.188;2022-12-10T02:40:04;5.90;99.90
796;DHT22;381;48.770;9.188;2022-12-10T02:45:16;5.90;99.90
796;DHT22;381;48.770;9.188;2022-12-10T02:50:21;5.90;99.90
796;DHT22;381;48.770;9.188;2022-12-10T02:55:25;5.80;99.90
796;DHT22;381;48.770;9.188;2022-12-10T03:00:32;5.80;99.90
796;DHT22;381;48.770;9.188;2022-12-10T03:05:42;5.80;99.90
796;DHT22;381;48.770;9.188;2022-12-10T03:10:52;5.70;99.90
796;DHT22;381;48.770;9.188;2022-12-10T03:15:59;5.70;99.90
796;DHT22;381;48.770;9.188;2022-12-10T03:21:14;5.70;99.90
796;DHT22;381;48.770;9.188;2022-12-10T03:26:33;5.70;99.90
796;DHT22;381;48.770;9.188;2022-12-10T03:31:55;5.70;99.90
796;DHT22;381;48.770;9.188;2022-12-10T03:37:29;5.80;99.90
796;DHT22;381;48.770;9.188;2022-12-10T03:42:43;5.80;99.90
796;DHT22;381;48.770;9.188;2022-12-10T03:47:53;5.70;99.90
796;DHT22;381;48.770;9.188;2022-12-10T03:53:01;5.70;99.90
796;DHT22;381;48.770;9.188;2022-12-10T03:58:03;5.80;99.90
796;DHT22;381;48.770;9.188;2022-12-10T04:03:14;5.90;99.90
796;DHT22;381;48.770;9.188;2022-12-10T04:08:17;5.90;99.90
796;DHT22;381;48.770;9.188;2022-12-10T04:13:20;5.90;99.90
796;DHT22;381;48.770;9.188;2022-12-10T04:18:41;5.90;99.90
796;DHT22;381;48.770;9.188;2022-12-10T04:23:43;5.90;99.90
796;DHT22;381;48.770;9.188;2022-12-10T04:29:03;5.90;99.90
796;DHT22;381;48.770;9.188;2022-12-10T04:34:19;5.90;99.90
796;DHT22;381;48.770;9.188;2022-12-10T04:39:22;5.90;99.90
796;DHT22;381;48.770;9.188;2022-12-10T04:44:28;5.90;99.90
796;DHT22;381;48.770;9.188;2022-12-10T04:49:39;5.90;99.90
796;DHT22;381;48.770;9.188;2022-12-10T04:54:46;5.90;99.90
796;DHT22;381;48.770;9.188;2022-12-10T04:59:54;5.80;99.90
796;DHT22;381;48.770;9.188;2022-12-10T05:05:04;5.90;99.90
796;DHT22;381;48.770;9.188;2022-12-10T05:10:07;5.90;99.90
796;DHT22;381;48.770;9.188;2022-12-10T05:15:11;5.90;99.90
796;DHT22;381;48.770;9.188;2022-12-10T05:20:22;5.90;99.90
796;DHT22;381;48.770;9.188;2022-12-10T05:25:44;5.90;99.90
796;DHT22;381;48.770;9.188;2022-12-10T05:30:53;5.90;99.90
796;DHT22;381;48.770;9.188;2022-12-10T05:36:06;5.80;99.90
796;DHT22;381;48.770;9.188;2022-12-10T05:41:22;5.80;99.90
796;DHT22;381;48.770;9.188;2022-12-10T05:46:26;5.80;99.90
796;DHT22;381;48.770;9.188;2022-12-10T05:51:32;5.80;99.90
796;DHT22;381;48.770;9.188;2022-12-10T05:56:39;5.70;99.90
796;DHT22;381;48.770;9.188;2022-12-10T06:01:47;5.70;99.90
796;DHT22;381;48.770;9.188;2022-12-10T06:06:50;5.60;99.90
796;DHT22;381;48.770;9.188;2022-12-10T06:11:53;5.60;99.90
796;DHT22;381;48.770;9.188;2022-12-10T06:16:55;5.60;99.90
796;DHT22;381;48.770;9.188;2022-12-10T06:21:58;5.60;99.90
796;DHT22;381;48.770;9.188;2022-12-10T06:27:06;5.60;99.90
796;DHT22;381;48.770;9.188;2022-12-10T06:32:08;5.60;99.90
796;DHT22;381;48.770;9.188;2022-12-10T06:37:31;5.70;99.90
796;DHT22;381;48.770;9.188;2022-12-10T06:42:33;5.70;99.90
796;DHT22;381;48.770;9.188;2022-12-10T06:47:35;5.60;99.90
796;DHT22;381;48.770;9.188;2022-12-10T06:53:05;5.60;99.90
796;DHT22;381;48.770;9.188;2022-12-10T06:58:23;5.60;99.90
796;DHT22;381;48.770;9.188;2022-12-10T07:03:25;5.50;99.90
796;DHT22;381;48.770;9.188;2022-12-10T07:15:11;5.60;99.90
796;DHT22;381;48.770;9.188;2022-12-10T07:20:13;5.50;99.90
796;DHT22;381;48.770;9.188;2022-12-10T07:25:15;5.60;99.90
796;DHT22;381;48.770;9.188;2022-12-10T07:30:19;5.60;99.90
796;DHT22;381;48.770;9.188;2022-12-10T07:35:21;5.50;99.90
796;DHT22;381;48.770;9.188;2022-12-10T07:40:23;5.50;99.90
796;DHT22;381;48.770;9.188;2022-12-10T07:45:26;5.60;99.90
796;DHT22;381;48.770;9.188;2022-12-10T07:50:28;5.60;99.90
796;DHT22;381;48.770;9.188;2022-12-10T07:55:31;5.60;99.90
796;DHT22;381;48.770;9.188;2022-12-10T08:00:35;5.70;99.90
796;DHT22;381;48.770;9.188;2022-12-10T08:05:37;5.70;99.90
796;DHT22;381;48.770;9.188;2022-12-10T08:10:40;5.80;99.90
796;DHT22;381;48.770;9.188;2022-12-10T08:15:46;5.80;99.90
796;DHT22;381;48.770;9.188;2022-12-10T08:20:48;5.90;99.90
796;DHT22;381;48.770;9.188;2022-12-10T08:25:50;5.90;99.90
796;DHT22;381;48.770;9.188;2022-12-10T08:30:53;5.90;99.90
796;DHT22;381;48.770;9.188;2022-12-10T08:35:57;6.00;99.90
796;DHT22;381;48.770;9.188;2022-12-10T08:41:05;6.00;99.90
796;DHT22;381;48.770;9.188;2022-12-10T08:46:10;6.00;99.90
796;DHT22;381;48.770;9.188;2022-12-10T08:51:14;6.00;99.90
796;DHT22;381;48.770;9.188;2022-12-10T08:56:17;6.00;99.90
796;DHT22;381;48.770;9.188;2022-12-10T09:01:20;6.10;99.90
796;DHT22;381;48.770;9.188;2022-12-10T09:06:23;6.10;99.90
796;DHT22;381;48.770;9.188;2022-12-10T09:11:28;6.10;99.90
796;DHT22;381;48.770;9.188;2022-12-10T09:16:34;6.10;99.90
796;DHT22;381;48.770;9.188;2022-12-10T09:21:36;6.00;99.90
796;DHT22;381;48.770;9.188;2022-12-10T09:26:39;6.10;99.90
796;DHT22;381;48.770;9.188;2022-12-10T09:31:42;6.10;99.90
796;DHT22;381;48.770;9.188;2022-12-10T09:36:45;6.10;99.90
796;DHT22;381;48.770;9.188;2022-12-10T09:41:56;6.10;99.90
796;DHT22;381;48.770;9.188;2022-12-10T09:47:08;6.10;99.90
796;DHT22;381;48.770;9.188;2022-12-10T09:52:12;6.20;99.90
796;DHT22;381;48.770;9.188;2022-12-10T09:57:20;6.20;99.90
796;DHT22;381;48.770;9.188;2022-12-10T10:02:25;6.20;99.90
796;DHT22;381;48.770;9.188;2022-12-10T10:07:29;6.20;99.90
796;DHT22;381;48.770;9.188;2022-12-10T10:12:33;6.30;99.90
796;DHT22;381;48.770;9.188;2022-12-10T10:17:37;6.30;99.90
796;DHT22;381;48.770;9.188;2022-12-10T10:22:40;6.30;99.90
796;DHT22;381;48.770;9.188;2022-12-10T10:27:42;6.30;99.90
796;DHT22;381;48.770;9.188;2022-12-10T10:32:48;6.30;99.90
796;DHT22;381;48.770;9.188;2022-12-10T10:37:52;6.30;99.90
796;DHT22;381;48.770;9.188;2022-12-10T10:42:59;6.30;99.90
796;DHT22;381;48.770;9.188;2022-12-10T10:48:10;6.40;99.90
796;DHT22;381;48.770;9.188;2022-12-10T10:53:31;6.40;99.90
796;DHT22;381;48.770;9.188;2022-12-10T10:58:33;6.40;99.90
796;DHT22;381;48.770;9.188;2022-12-10T11:03:46;6.40;99.90
796;DHT22;381;48.770;9.188;2022-12-10T11:08:56;6.40;99.90
796;DHT22;381;48.770;9.188;2022-12-10T11:14:13;6.50;99.90
796;DHT22;381;48.770;9.188;2022-12-10T11:19:21;6.50;99.90
796;DHT22;381;48.770;9.188;2022-12-10T11:24:25;6.50;99.90
796;DHT22;381;48.770;9.188;2022-12-10T11:29:43;6.50;99.90
796;DHT22;381;48.770;9.188;2022-12-10T11:35:01;6.50;99.90
796;DHT22;381;48.770;9.188;2022-12-10T11:40:19;6.50;99.90
796;DHT22;381;48.770;9.188;2022-12-10T11:45:31;6.60;99.90
796;DHT22;381;48.770;9.188;2022-12-10T11:50:45;6.60;99.90
796;DHT22;381;48.770;9.188;2022-12-10T11:55:53;6.60;99.90
796;DHT22;381;48.770;9.188;2022-12-10T12:01:01;6.60;99.90
796;DHT22;381;48.770;9.188;2022-12-10T12:17:04;6.60;99.90
796;DHT22;381;48.770;9.188;2022-12-10T12:22:14;6.70;99.90
796;DHT22;381;48.770;9.188;2022-12-10T12:27:24;6.70;99.90
796;DHT22;381;48.770;9.188;2022-12-10T12:32:31;6.70;99.90
796;DHT22;381;48.770;9.188;2022-12-10T12:37:40;6.70;99.90
796;DHT22;381;48.770;9.188;2022-12-10T12:42:49;6.70;99.90
796;DHT22;381;48.770;9.188;2022-12-10T12:47:58;6.70;99.90
796;DHT22;381;48.770;9.188;2022-12-10T12:53:08;6.70;99.90
796;DHT22;381;48.770;9.188;2022-12-10T12:58:19;6.80;99.90
796;DHT22;381;48.770;9.188;2022-12-10T13:03:35;6.80;99.90
796;DHT22;381;48.770;9.188;2022-12-10T13:08:44;6.80;99.90
796;DHT22;381;48.770;9.188;2022-12-10T13:14:13;6.70;99.90
796;DHT22;381;48.770;9.188;2022-12-10T13:19:31;6.80;99.90
796;DHT22;381;48.770;9.188;2022-12-10T13:30:34;6.70;99.90
796;DHT22;381;48.770;9.188;2022-12-10T13:35:50;6.70;99.90
796;DHT22;381;48.770;9.188;2022-12-10T13:40:59;6.70;99.90
796;DHT22;381;48.770;9.188;2022-12-10T13:46:28;6.60;99.90
796;DHT22;381;48.770;9.188;2022-12-10T13:51:39;6.60;99.90
796;DHT22;381;48.770;9.188;2022-12-10T13:56:53;6.50;99.90
796;DHT22;381;48.770;9.188;2022-12-10T14:02:16;6.50;99.90
796;DHT22;381;48.770;9.188;2022-12-10T14:07:21;6.40;99.90
796;DHT22;381;48.770;9.188;2022-12-10T14:12:28;6.30;99.90
796;DHT22;381;48.770;9.188;2022-12-10T14:17:36;6.20;99.90
796;DHT22;381;48.770;9.188;2022-12-10T14:22:44;6.20;99.90
796;DHT22;381;48.770;9.188;2022-12-10T14:27:48;6.10;99.90
796;DHT22;381;48.770;9.188;2022-12-10T14:32:54;6.10;99.90
796;DHT22;381;48.770;9.188;2022-12-10T14:37:59;6.10;99.90
796;DHT22;381;48.770;9.188;2022-12-10T14:43:04;6.10;99.90
796;DHT22;381;48.770;9.188;2022-12-10T14:48:11;6.10;99.90
796;DHT22;381;48.770;9.188;2022-12-10T14:53:15;6.10;99.90
796;DHT22;381;48.770;9.188;2022-12-10T14:58:23;6.10;99.90
796;DHT22;381;48.770;9.188;2022-12-10T15:03:32;6.10;99.90
796;DHT22;381;48.770;9.188;2022-12-10T15:08:35;6.00;99.90
796;DHT22;381;48.770;9.188;2022-12-10T15:13:40;6.00;99.90
796;DHT22;381;48.770;9.188;2022-12-10T15:18:44;6.00;99.90
796;DHT22;381;48.770;9.188;2022-12-10T15:23:47;6.00;99.90
796;DHT22;381;48.770;9.188;2022-12-10T15:28:50;6.00;99.90
796;DHT22;381;48.770;9.188;2022-12-10T15:33:54;6.00;99.90
796;DHT22;381;48.770;9.188;2022-12-10T15:39:01;5.90;99.90
796;DHT22;381;48.770;9.188;2022-12-10T15:44:06;5.90;99.90
796;DHT22;381;48.770;9.188;2022-12-10T15:49:19;5.90;99.90
796;DHT22;381;48.770;9.188;2022-12-10T15:54:22;5.80;99.90
796;DHT22;381;48.770;9.188;2022-12-10T15:59:27;5.80;99.90
796;DHT22;381;48.770;9.188;2022-12-10T16:04:31;5.80;99.90
796;DHT22;381;48.770;9.188;2022-12-10T16:09:33;5.70;99.90
796;DHT22;381;48.770;9.188;2022-12-10T16:14:35;5.70;99.90
796;DHT22;381;48.770;9.188;2022-12-10T16:19:38;5.60;99.90
796;DHT22;381;48.770;9.188;2022-12-10T16:24:41;5.60;99.90
796;DHT22;381;48.770;9.188;2022-12-10T16:29:43;5.60;99.90
796;DHT22;381;48.770;9.188;2022-12-10T16:34:49;5.60;99.90
796;DHT22;381;48.770;9.188;2022-12-10T16:39:52;5.60;99.90
796;DHT22;381;48.770;9.188;2022-12-10T16:44:55;5.60;99.90
796;DHT22;381;48.770;9.188;2022-12-10T16:49:58;5.60;99.90
796;DHT22;381;48.770;9.188;2022-12-10T16:55:00;5.50;99.90
796;DHT22;381;48.770;9.188;2022-12-10T17:00:04;5.50;99.90
796;DHT22;381;48.770;9.188;2022-12-10T17:05:14;5.50;99.90
796;DHT22;381;48.770;9.188;2022-12-10T17:10:16;5.50;99.90
796;DHT22;381;48.770;9.188;2022-12-10T17:15:38;5.50;99.90
796;DHT22;381;48.770;9.188;2022-12-10T17:20:42;5.50;99.90
796;DHT22;381;48.770;9.188;2022-12-10T17:25:45;5.60;99.90
796;DHT22;381;48.770;9.188;2022-12-10T17:30:49;5.60;99.90
796;DHT22;381;48.770;9.188;2022-12-10T17:35:53;5.50;99.90
796;DHT22;381;48.770;9.188;2022-12-10T17:40:55;5.50;99.90
796;DHT22;381;48.770;9.188;2022-12-10T17:45:58;5.50;99.90
796;DHT22;381;48.770;9.188;2022-12-10T17:51:02;5.50;99.90
796;DHT22;381;48.770;9.188;2022-12-10T17:56:10;5.60;99.90
796;DHT22;381;48.770;9.188;2022-12-10T18:01:14;5.60;99.90
796;DHT22;381;48.770;9.188;2022-12-10T18:06:20;5.60;99.90
796;DHT22;381;48.770;9.188;2022-12-10T18:11:27;5.50;99.90
796;DHT22;381;48.770;9.188;2022-12-10T18:16:33;5.50;99.90
796;DHT22;381;48.770;9.188;2022-12-10T18:21:37;5.50;99.90
796;DHT22;381;48.770;9.188;2022-12-10T18:26:39;5.40;99.90
796;DHT22;381;48.770;9.188;2022-12-10T18:31:43;5.40;99.90
796;DHT22;381;48.770;9.188;2022-12-10T18:36:48;5.40;99.90
796;DHT22;381;48.770;9.188;2022-12-10T18:41:51;5.40;99.90
796;DHT22;381;48.770;9.188;2022-12-10T18:46:55;5.40;99.90
796;DHT22;381;48.770;9.188;2022-12-10T18:51:59;5.40;99.90
796;DHT22;381;48.770;9.188;2022-12-10T18:57:01;5.40;99.90
796;DHT22;381;48.770;9.188;2022-12-10T19:02:06;5.40;99.90
796;DHT22;381;48.770;9.188;2022-12-10T19:07:11;5.40;99.90
796;DHT22;381;48.770;9.188;2022-12-10T19:12:14;5.40;99.90
796;DHT22;381;48.770;9.188;2022-12-10T19:17:16;5.40;99.90
796;DHT22;381;48.770;9.188;2022-12-10T19:22:19;5.50;99.90
796;DHT22;381;48.770;9.188;2022-12-10T19:27:21;5.40;99.90
796;DHT22;381;48.770;9.188;2022-12-10T19:32:24;5.50;99.90
796;DHT22;381;48.770;9.188;2022-12-10T19:37:27;5.40;99.90
796;DHT22;381;48.770;9.188;2022-12-10T19:42:31;5.40;99.90
796;DHT22;381;48.770;9.188;2022-12-10T19:47:33;5.40;99.90
796;DHT22;381;48.770;9.188;2022-12-10T19:52:36;5.40;99.90
796;DHT22;381;48.770;9.188;2022-12-10T19:57:38;5.40;99.90
796;DHT22;381;48.770;9.188;2022-12-10T20:02:41;5.40;99.90
796;DHT22;381;48.770;9.188;2022-12-10T20:07:44;5.30;99.90
796;DHT22;381;48.770;9.188;2022-12-10T20:12:47;5.30;99.90
796;DHT22;381;48.770;9.188;2022-12-10T20:17:49;5.20;99.90
796;DHT22;381;48.770;9.188;2022-12-10T20:22:54;5.20;99.90
796;DHT22;381;48.770;9.188;2022-12-10T20:27:57;5.20;99.90
796;DHT22;381;48.770;9.188;2022-12-10T20:32:59;5.20;99.90
796;DHT22;381;48.770;9.188;2022-12-10T20:38:02;5.20;99.90
796;DHT22;381;48.770;9.188;2022-12-10T20:43:04;5.20;99.90
796;DHT22;381;48.770;9.188;2022-12-10T20:48:08;5.20;99.90
796;DHT22;381;48.770;9.188;2022-12-10T20:53:12;5.20;99.90
796;DHT22;381;48.770;9.188;2022-12-10T20:58:14;5.20;99.90
796;DHT22;381;48.770;9.188;2022-12-10T21:03:16;5.10;99.90
796;DHT22;381;48.770;9.188;2022-12-10T21:08:20;5.00;99.90
796;DHT22;381;48.770;9.188;2022-12-10T21:13:24;5.00;99.90
796;DHT22;381;48.770;9.188;2022-12-10T21:18:27;4.90;99.90
796;DHT22;381;48.770;9.188;2022-12-10T21:23:34;4.80;99.90
796;DHT22;381;48.770;9.188;2022-12-10T21:28:36;4.70;99.90
796;DHT22;381;48.770;9.188;2022-12-10T21:33:38;4.70;99.90
796;DHT22;381;48.770;9.188;2022-12-10T21:38:42;4.60;99.90
796;DHT22;381;48.770;9.188;2022-12-10T21:43:44;4.50;99.90
796;DHT22;381;48.770;9.188;2022-12-10T21:48:46;4.50;99.90
796;DHT22;381;48.770;9.188;2022-12-10T21:53:51;4.50;99.90
796;DHT22;381;48.770;9.188;2022-12-10T21:58:53;4.40;99.90
796;DHT22;381;48.770;9.188;2022-12-10T22:03:56;4.40;99.90
796;DHT22;381;48.770;9.188;2022-12-10T22:09:00;4.40;99.90
796;DHT22;381;48.770;9.188;2022-12-10T22:14:02;4.30;99.90
796;DHT22;381;48.770;9.188;2022-12-10T22:19:04;4.30;99.90
796;DHT22;381;48.770;9.188;2022-12-10T22:24:08;4.30;99.90
796;DHT22;381;48.770;9.188;2022-12-10T22:29:10;4.40;99.90
796;DHT22;381;48.770;9.188;2022-12-10T22:34:12;4.30;99.90
796;DHT22;381;48.770;9.188;2022-12-10T22:39:15;4.30;99.90
796;DHT22;381;48.770;9.188;2022-12-10T22:44:17;4.30;99.90
796;DHT22;381;48.770;9.188;2022-12-10T22:49:20;4.20;99.90
796;DHT22;381;48.770;9.188;2022-12-10T22:54:23;4.20;99.90
796;DHT22;381;48.770;9.188;2022-12-10T22:59:26;4.10;99.90
796;DHT22;381;48.770;9.188;2022-12-10T23:04:28;4.10;99.90
796;DHT22;381;48.770;9.188;2022-12-10T23:09:32;4.10;99.90
796;DHT22;381;48.770;9.188;2022-12-10T23:14:34;4.10;99.90
796;DHT22;381;48.770;9.188;2022-12-10T23:19:37;4.10;99.90
796;DHT22;381;48.770;9.188;2022-12-10T23:24:40;4.00;99.90
796;DHT22;381;48.770;9.188;2022-12-10T23:29:42;3.90;99.90
796;DHT22;381;48.770;9.188;2022-12-10T23:34:44;3.80;99.80
796;DHT22;381;48.770;9.188;2022-12-10T23:39:48;3.60;99.90
796;DHT22;381;48.770;9.188;2022-12-10T23:44:50;3.50;99.80
796;DHT22;381;48.770;9.188;2022-12-10T23:49:52;3.30;99.80
796;DHT22;381;48.770;9.188;2022-12-10T23:54:56;3.20;99.90
796;DHT22;381;48.770;9.188;2022-12-10T23:59:58;3.10;99.90
